sensor_id;sensor_type;location;lat;lon;timestamp;pressure;altitude;pressure_sealevel;temperature;humidity
70393;BME280;57812;59.294;18.084;2022-07-10T00:00:14;100338.99;;;29.45;14.67
70393;BME280;57812;59.294;18.084;2022-07-10T00:02:39;100338.07;;;29.90;14.69
70393;BME280;57812;59.294;18.084;2022-07-10T00:05:05;100336.71;;;29.58;14.64
70393;BME280;57812;59.294;18.084;2022-07-10T00:07:31;100332.40;;;29.31;14.66
70393;BME280;57812;59.294;18.084;2022-07-10T00:09:57;100335.04;;;28.82;14.72
70393;BME280;57812;59.294;18.084;2022-07-10T00:12:23;100332.31;;;29.34;14.54
70393;BME280;57812;59.294;18.084;2022-07-10T00:14:49;100332.72;;;29.25;14.61
70393;BME280;57812;59.294;18.084;2022-07-10T00:17:15;100327.27;;;29.28;14.74
70393;BME280;57812;59.294;18.084;2022-07-10T00:19:40;100326.82;;;29.36;14.84
70393;BME280;57812;59.294;18.084;2022-07-10T00:22:06;100325.23;;;29.25;14.95
70393;BME280;57812;59.294;18.084;2022-07-10T00:24:32;100326.39;;;29.69;14.68
70393;BME280;57812;59.294;18.084;2022-07-10T00:26:58;100326.00;;;29.29;14.68
70393;BME280;57812;59.294;18.084;2022-07-10T00:29:24;100321.41;;;29.13;14.92
70393;BME280;57812;59.294;18.084;2022-07-10T00:31:50;100321.06;;;29.18;14.93
70393;BME280;57812;59.294;18.084;2022-07-10T00:34:16;100325.96;;;29.33;14.86
70393;BME280;57812;59.294;18.084;2022-07-10T00:36:42;100320.05;;;29.46;14.92
70393;BME280;57812;59.294;18.084;2022-07-10T00:39:08;100320.48;;;29.36;14.86
70393;BME280;57812;59.294;18.084;2022-07-10T00:41:34;100321.03;;;28.88;14.89
70393;BME280;57812;59.294;18.084;2022-07-10T00:44:01;100318.02;;;29.98;14.89
70393;BME280;57812;59.294;18.084;2022-07-10T00:46:27;100315.80;;;29.30;15.06
70393;BME280;57812;59.294;18.084;2022-07-10T00:48:52;100318.10;;;29.57;15.03
70393;BME280;57812;59.294;18.084;2022-07-10T00:51:20;100319.80;;;29.72;14.95
70393;BME280;57812;59.294;18.084;2022-07-10T00:53:45;100322.82;;;29.51;14.79
70393;BME280;57812;59.294;18.084;2022-07-10T00:56:10;100323.65;;;29.74;14.75
70393;BME280;57812;59.294;18.084;2022-07-10T00:58:40;100321.49;;;29.64;14.81
70393;BME280;57812;59.294;18.084;2022-07-10T01:01:02;100322.86;;;29.44;14.78
70393;BME280;57812;59.294;18.084;2022-07-10T01:03:27;100324.76;;;29.53;14.85
70393;BME280;57812;59.294;18.084;2022-07-10T01:05:53;100322.07;;;29.59;14.69
70393;BME280;57812;59.294;18.084;2022-07-10T01:08:19;100324.49;;;29.14;14.83
70393;BME280;57812;59.294;18.084;2022-07-10T01:10:47;100322.68;;;29.29;14.86
70393;BME280;57812;59.294;18.084;2022-07-10T01:13:11;100320.97;;;29.19;14.93
70393;BME280;57812;59.294;18.084;2022-07-10T01:15:37;100321.17;;;29.19;14.90
70393;BME280;57812;59.294;18.084;2022-07-10T01:18:03;100322.24;;;29.44;14.90
70393;BME280;57812;59.294;18.084;2022-07-10T01:20:30;100317.92;;;29.11;15.08
70393;BME280;57812;59.294;18.084;2022-07-10T01:22:54;100321.01;;;29.06;14.97
70393;BME280;57812;59.294;18.084;2022-07-10T01:25:21;100323.17;;;29.34;14.80
70393;BME280;57812;59.294;18.084;2022-07-10T01:27:46;100323.00;;;29.29;14.96
70393;BME280;57812;59.294;18.084;2022-07-10T01:30:12;100328.44;;;29.82;14.78
70393;BME280;57812;59.294;18.084;2022-07-10T01:32:39;100332.69;;;29.34;14.77
70393;BME280;57812;59.294;18.084;2022-07-10T01:35:06;100332.13;;;29.52;14.83
70393;BME280;57812;59.294;18.084;2022-07-10T01:37:30;100328.63;;;28.97;15.04
70393;BME280;57812;59.294;18.084;2022-07-10T01:39:56;100334.20;;;29.97;14.84
70393;BME280;57812;59.294;18.084;2022-07-10T01:42:22;100332.00;;;29.30;14.95
70393;BME280;57812;59.294;18.084;2022-07-10T01:44:48;100334.54;;;29.02;14.99
70393;BME280;57812;59.294;18.084;2022-07-10T01:47:14;100336.54;;;29.01;14.88
70393;BME280;57812;59.294;18.084;2022-07-10T01:49:40;100332.44;;;29.30;14.98
70393;BME280;57812;59.294;18.084;2022-07-10T01:52:06;100332.93;;;29.37;14.89
70393;BME280;57812;59.294;18.084;2022-07-10T01:54:32;100335.22;;;29.61;14.75
70393;BME280;57812;59.294;18.084;2022-07-10T01:56:58;100333.78;;;29.47;14.82
70393;BME280;57812;59.294;18.084;2022-07-10T01:59:24;100336.97;;;29.59;14.77
70393;BME280;57812;59.294;18.084;2022-07-10T02:01:49;100336.61;;;29.31;15.11
70393;BME280;57812;59.294;18.084;2022-07-10T02:04:15;100331.62;;;29.02;14.87
70393;BME280;57812;59.294;18.084;2022-07-10T02:06:41;100332.23;;;29.22;15.18
70393;BME280;57812;59.294;18.084;2022-07-10T02:09:07;100330.15;;;29.46;14.90
70393;BME280;57812;59.294;18.084;2022-07-10T02:11:33;100327.33;;;29.23;14.92
70393;BME280;57812;59.294;18.084;2022-07-10T02:13:59;100323.49;;;29.51;14.96
70393;BME280;57812;59.294;18.084;2022-07-10T02:16:25;100325.37;;;29.39;14.95
70393;BME280;57812;59.294;18.084;2022-07-10T02:18:51;100327.96;;;29.17;14.95
70393;BME280;57812;59.294;18.084;2022-07-10T02:21:17;100325.51;;;28.88;15.00
70393;BME280;57812;59.294;18.084;2022-07-10T02:23:43;100325.57;;;29.38;15.09
70393;BME280;57812;59.294;18.084;2022-07-10T02:26:09;100321.47;;;29.26;15.20
70393;BME280;57812;59.294;18.084;2022-07-10T02:28:35;100322.20;;;29.61;15.11
70393;BME280;57812;59.294;18.084;2022-07-10T02:31:01;100319.74;;;29.25;15.08
70393;BME280;57812;59.294;18.084;2022-07-10T02:33:27;100319.99;;;28.97;15.45
70393;BME280;57812;59.294;18.084;2022-07-10T02:35:53;100321.98;;;29.22;15.16
70393;BME280;57812;59.294;18.084;2022-07-10T02:38:19;100320.85;;;29.16;15.34
70393;BME280;57812;59.294;18.084;2022-07-10T02:40:45;100322.85;;;29.44;15.18
70393;BME280;57812;59.294;18.084;2022-07-10T02:43:11;100322.39;;;29.31;15.29
70393;BME280;57812;59.294;18.084;2022-07-10T02:45:36;100323.01;;;29.13;15.27
70393;BME280;57812;59.294;18.084;2022-07-10T02:48:03;100323.53;;;29.04;15.35
70393;BME280;57812;59.294;18.084;2022-07-10T02:50:29;100324.60;;;29.38;15.28
70393;BME280;57812;59.294;18.084;2022-07-10T02:52:54;100318.88;;;29.29;15.36
70393;BME280;57812;59.294;18.084;2022-07-10T02:55:20;100318.75;;;29.24;15.44
70393;BME280;57812;59.294;18.084;2022-07-10T02:57:46;100314.90;;;29.35;15.59
70393;BME280;57812;59.294;18.084;2022-07-10T03:00:13;100317.53;;;29.04;15.54
70393;BME280;57812;59.294;18.084;2022-07-10T03:02:38;100319.25;;;29.22;15.59
70393;BME280;57812;59.294;18.084;2022-07-10T03:05:05;100321.67;;;29.24;15.60
70393;BME280;57812;59.294;18.084;2022-07-10T03:07:30;100322.83;;;29.47;15.62
70393;BME280;57812;59.294;18.084;2022-07-10T03:09:56;100318.93;;;29.29;15.75
70393;BME280;57812;59.294;18.084;2022-07-10T03:12:22;100319.20;;;29.02;15.67
70393;BME280;57812;59.294;18.084;2022-07-10T03:14:48;100322.32;;;29.35;15.62
70393;BME280;57812;59.294;18.084;2022-07-10T03:17:14;100321.15;;;29.25;15.71
70393;BME280;57812;59.294;18.084;2022-07-10T03:19:40;100325.69;;;29.04;15.72
70393;BME280;57812;59.294;18.084;2022-07-10T03:22:06;100328.11;;;29.48;15.74
70393;BME280;57812;59.294;18.084;2022-07-10T03:24:31;100326.67;;;29.59;15.86
70393;BME280;57812;59.294;18.084;2022-07-10T03:26:57;100329.39;;;29.40;15.68
70393;BME280;57812;59.294;18.084;2022-07-10T03:29:23;100323.73;;;29.49;15.77
70393;BME280;57812;59.294;18.084;2022-07-10T03:31:49;100326.27;;;28.54;15.94
70393;BME280;57812;59.294;18.084;2022-07-10T03:34:15;100325.44;;;29.46;15.64
70393;BME280;57812;59.294;18.084;2022-07-10T03:36:41;100324.42;;;28.57;16.00
70393;BME280;57812;59.294;18.084;2022-07-10T03:39:07;100325.19;;;29.44;15.89
70393;BME280;57812;59.294;18.084;2022-07-10T03:41:33;100330.26;;;29.57;15.66
70393;BME280;57812;59.294;18.084;2022-07-10T03:43:59;100331.25;;;29.24;16.00
70393;BME280;57812;59.294;18.084;2022-07-10T03:46:25;100331.50;;;29.35;15.76
70393;BME280;57812;59.294;18.084;2022-07-10T03:48:51;100330.50;;;28.71;15.88
70393;BME280;57812;59.294;18.084;2022-07-10T03:51:17;100334.23;;;29.43;15.68
70393;BME280;57812;59.294;18.084;2022-07-10T03:53:43;100328.31;;;29.24;15.79
70393;BME280;57812;59.294;18.084;2022-07-10T03:56:09;100333.00;;;29.72;15.64
70393;BME280;57812;59.294;18.084;2022-07-10T03:58:35;100333.01;;;29.10;16.05
70393;BME280;57812;59.294;18.084;2022-07-10T04:01:01;100332.24;;;28.97;16.00
70393;BME280;57812;59.294;18.084;2022-07-10T04:03:27;100330.65;;;29.20;15.85
70393;BME280;57812;59.294;18.084;2022-07-10T04:05:53;100334.05;;;29.57;15.77
70393;BME280;57812;59.294;18.084;2022-07-10T04:08:19;100338.12;;;29.43;15.73
70393;BME280;57812;59.294;18.084;2022-07-10T04:10:45;100338.82;;;29.01;15.70
70393;BME280;57812;59.294;18.084;2022-07-10T04:13:11;100338.63;;;28.99;15.98
70393;BME280;57812;59.294;18.084;2022-07-10T04:15:37;100342.00;;;29.11;15.92
70393;BME280;57812;59.294;18.084;2022-07-10T04:18:03;100339.87;;;29.06;15.97
70393;BME280;57812;59.294;18.084;2022-07-10T04:20:29;100338.16;;;29.54;15.83
70393;BME280;57812;59.294;18.084;2022-07-10T04:22:56;100341.34;;;29.06;15.98
70393;BME280;57812;59.294;18.084;2022-07-10T04:25:21;100340.53;;;28.98;15.89
70393;BME280;57812;59.294;18.084;2022-07-10T04:27:47;100344.87;;;28.87;15.95
70393;BME280;57812;59.294;18.084;2022-07-10T04:30:13;100348.41;;;29.31;15.94
70393;BME280;57812;59.294;18.084;2022-07-10T04:32:39;100354.80;;;28.82;15.93
70393;BME280;57812;59.294;18.084;2022-07-10T04:35:05;100355.16;;;28.38;16.17
70393;BME280;57812;59.294;18.084;2022-07-10T04:37:31;100352.45;;;28.91;15.85
70393;BME280;57812;59.294;18.084;2022-07-10T04:39:57;100352.70;;;29.65;15.59
70393;BME280;57812;59.294;18.084;2022-07-10T04:42:23;100351.95;;;29.24;15.85
70393;BME280;57812;59.294;18.084;2022-07-10T04:44:49;100351.09;;;28.63;16.14
70393;BME280;57812;59.294;18.084;2022-07-10T04:47:15;100354.15;;;28.62;16.07
70393;BME280;57812;59.294;18.084;2022-07-10T04:49:40;100356.95;;;29.18;16.01
70393;BME280;57812;59.294;18.084;2022-07-10T04:52:07;100356.07;;;28.96;16.11
70393;BME280;57812;59.294;18.084;2022-07-10T04:54:32;100359.13;;;28.79;15.91
70393;BME280;57812;59.294;18.084;2022-07-10T04:56:59;100360.25;;;29.05;15.93
70393;BME280;57812;59.294;18.084;2022-07-10T04:59:24;100366.36;;;28.80;15.76
70393;BME280;57812;59.294;18.084;2022-07-10T05:01:50;100371.17;;;28.95;15.69
70393;BME280;57812;59.294;18.084;2022-07-10T05:04:16;100372.53;;;28.81;15.90
70393;BME280;57812;59.294;18.084;2022-07-10T05:06:42;100373.57;;;28.92;15.91
70393;BME280;57812;59.294;18.084;2022-07-10T05:09:08;100373.44;;;28.44;16.18
70393;BME280;57812;59.294;18.084;2022-07-10T05:11:34;100376.37;;;29.14;15.75
70393;BME280;57812;59.294;18.084;2022-07-10T05:14:00;100379.18;;;28.89;15.56
70393;BME280;57812;59.294;18.084;2022-07-10T05:16:26;100373.36;;;28.63;15.69
70393;BME280;57812;59.294;18.084;2022-07-10T05:18:52;100371.56;;;28.94;15.52
70393;BME280;57812;59.294;18.084;2022-07-10T05:21:18;100372.11;;;28.99;15.45
70393;BME280;57812;59.294;18.084;2022-07-10T05:23:44;100373.52;;;28.59;15.73
70393;BME280;57812;59.294;18.084;2022-07-10T05:26:10;100377.28;;;28.81;15.56
70393;BME280;57812;59.294;18.084;2022-07-10T05:28:36;100372.94;;;28.44;15.68
70393;BME280;57812;59.294;18.084;2022-07-10T05:31:02;100373.18;;;28.90;15.56
70393;BME280;57812;59.294;18.084;2022-07-10T05:33:28;100376.80;;;28.69;15.61
70393;BME280;57812;59.294;18.084;2022-07-10T05:35:54;100373.71;;;28.62;15.71
70393;BME280;57812;59.294;18.084;2022-07-10T05:38:20;100374.19;;;28.96;15.62
70393;BME280;57812;59.294;18.084;2022-07-10T05:40:46;100377.30;;;29.02;15.52
70393;BME280;57812;59.294;18.084;2022-07-10T05:43:12;100377.31;;;29.45;15.39
70393;BME280;57812;59.294;18.084;2022-07-10T05:45:38;100376.90;;;29.27;15.53
70393;BME280;57812;59.294;18.084;2022-07-10T05:48:04;100379.52;;;29.40;15.36
70393;BME280;57812;59.294;18.084;2022-07-10T05:50:30;100380.98;;;28.46;15.57
70393;BME280;57812;59.294;18.084;2022-07-10T05:52:56;100378.13;;;28.49;15.54
70393;BME280;57812;59.294;18.084;2022-07-10T05:55:22;100382.12;;;29.31;15.43
70393;BME280;57812;59.294;18.084;2022-07-10T05:57:48;100379.13;;;29.35;15.44
70393;BME280;57812;59.294;18.084;2022-07-10T06:00:14;100377.11;;;29.29;15.53
70393;BME280;57812;59.294;18.084;2022-07-10T06:02:40;100378.61;;;29.09;15.46
70393;BME280;57812;59.294;18.084;2022-07-10T06:05:06;100380.38;;;29.10;15.54
70393;BME280;57812;59.294;18.084;2022-07-10T06:07:32;100382.70;;;29.03;15.45
70393;BME280;57812;59.294;18.084;2022-07-10T06:09:58;100378.88;;;29.01;15.38
70393;BME280;57812;59.294;18.084;2022-07-10T06:12:24;100386.24;;;29.27;15.34
70393;BME280;57812;59.294;18.084;2022-07-10T06:14:49;100391.29;;;28.83;15.28
70393;BME280;57812;59.294;18.084;2022-07-10T06:17:15;100392.64;;;29.26;15.21
70393;BME280;57812;59.294;18.084;2022-07-10T06:19:41;100396.92;;;28.87;15.16
70393;BME280;57812;59.294;18.084;2022-07-10T06:22:07;100399.90;;;29.36;15.09
70393;BME280;57812;59.294;18.084;2022-07-10T06:24:33;100400.30;;;28.74;15.22
70393;BME280;57812;59.294;18.084;2022-07-10T06:26:59;100402.19;;;29.33;15.18
70393;BME280;57812;59.294;18.084;2022-07-10T06:29:25;100401.75;;;29.23;15.06
70393;BME280;57812;59.294;18.084;2022-07-10T06:31:51;100403.46;;;28.71;14.90
70393;BME280;57812;59.294;18.084;2022-07-10T06:34:17;100403.17;;;28.90;15.07
70393;BME280;57812;59.294;18.084;2022-07-10T06:36:43;100401.57;;;29.54;14.98
70393;BME280;57812;59.294;18.084;2022-07-10T06:39:09;100402.35;;;29.02;15.04
70393;BME280;57812;59.294;18.084;2022-07-10T06:41:35;100405.91;;;28.84;14.95
70393;BME280;57812;59.294;18.084;2022-07-10T06:44:01;100405.11;;;29.03;15.14
70393;BME280;57812;59.294;18.084;2022-07-10T06:46:27;100408.93;;;28.96;15.07
70393;BME280;57812;59.294;18.084;2022-07-10T06:48:53;100408.86;;;29.51;15.27
70393;BME280;57812;59.294;18.084;2022-07-10T06:51:19;100409.27;;;29.47;14.95
70393;BME280;57812;59.294;18.084;2022-07-10T06:53:45;100411.63;;;29.24;15.19
70393;BME280;57812;59.294;18.084;2022-07-10T06:56:10;100411.19;;;28.98;15.28
70393;BME280;57812;59.294;18.084;2022-07-10T06:58:36;100410.06;;;29.17;15.23
70393;BME280;57812;59.294;18.084;2022-07-10T07:01:02;100412.04;;;29.43;15.27
70393;BME280;57812;59.294;18.084;2022-07-10T07:03:28;100412.42;;;29.40;15.31
70393;BME280;57812;59.294;18.084;2022-07-10T07:05:54;100409.44;;;28.96;15.34
70393;BME280;57812;59.294;18.084;2022-07-10T07:08:20;100410.67;;;29.49;15.33
70393;BME280;57812;59.294;18.084;2022-07-10T07:10:46;100408.86;;;29.77;15.20
70393;BME280;57812;59.294;18.084;2022-07-10T07:13:12;100411.41;;;29.69;15.41
70393;BME280;57812;59.294;18.084;2022-07-10T07:15:38;100410.10;;;29.94;15.21
70393;BME280;57812;59.294;18.084;2022-07-10T07:18:04;100411.43;;;29.95;15.42
70393;BME280;57812;59.294;18.084;2022-07-10T07:20:30;100410.82;;;29.42;15.20
70393;BME280;57812;59.294;18.084;2022-07-10T07:22:56;100408.66;;;29.84;15.20
70393;BME280;57812;59.294;18.084;2022-07-10T07:25:21;100407.52;;;29.38;15.41
70393;BME280;57812;59.294;18.084;2022-07-10T07:27:47;100405.70;;;29.60;15.20
70393;BME280;57812;59.294;18.084;2022-07-10T07:30:14;100405.18;;;30.02;15.38
70393;BME280;57812;59.294;18.084;2022-07-10T07:32:39;100406.99;;;29.49;15.26
70393;BME280;57812;59.294;18.084;2022-07-10T07:35:06;100408.78;;;29.66;15.20
70393;BME280;57812;59.294;18.084;2022-07-10T07:37:37;100404.82;;;30.16;14.99
70393;BME280;57812;59.294;18.084;2022-07-10T07:39:58;100402.15;;;30.27;15.07
70393;BME280;57812;59.294;18.084;2022-07-10T07:42:23;100401.48;;;29.61;15.52
70393;BME280;57812;59.294;18.084;2022-07-10T07:44:49;100403.81;;;29.55;15.67
70393;BME280;57812;59.294;18.084;2022-07-10T07:47:15;100406.35;;;30.85;14.63
70393;BME280;57812;59.294;18.084;2022-07-10T07:49:40;100411.52;;;31.71;14.00
70393;BME280;57812;59.294;18.084;2022-07-10T07:52:06;100413.82;;;30.92;13.79
70393;BME280;57812;59.294;18.084;2022-07-10T07:54:32;100415.34;;;31.04;13.82
70393;BME280;57812;59.294;18.084;2022-07-10T07:56:58;100414.10;;;31.66;13.62
70393;BME280;57812;59.294;18.084;2022-07-10T07:59:24;100413.19;;;30.91;14.19
70393;BME280;57812;59.294;18.084;2022-07-10T08:01:50;100410.72;;;31.24;14.17
70393;BME280;57812;59.294;18.084;2022-07-10T08:04:16;100410.53;;;30.59;14.13
70393;BME280;57812;59.294;18.084;2022-07-10T08:06:42;100413.06;;;29.81;14.34
70393;BME280;57812;59.294;18.084;2022-07-10T08:09:08;100416.21;;;29.86;14.46
70393;BME280;57812;59.294;18.084;2022-07-10T08:11:33;100413.12;;;30.56;14.13
70393;BME280;57812;59.294;18.084;2022-07-10T08:13:59;100413.32;;;31.72;13.50
70393;BME280;57812;59.294;18.084;2022-07-10T08:16:25;100413.45;;;31.13;13.61
70393;BME280;57812;59.294;18.084;2022-07-10T08:18:51;100414.67;;;32.02;13.21
70393;BME280;57812;59.294;18.084;2022-07-10T08:21:17;100414.46;;;31.99;13.14
70393;BME280;57812;59.294;18.084;2022-07-10T08:23:43;100424.14;;;32.65;13.16
70393;BME280;57812;59.294;18.084;2022-07-10T08:26:09;100433.00;;;32.12;13.17
70393;BME280;57812;59.294;18.084;2022-07-10T08:28:35;100428.85;;;32.33;13.31
70393;BME280;57812;59.294;18.084;2022-07-10T08:31:01;100426.28;;;30.65;14.02
70393;BME280;57812;59.294;18.084;2022-07-10T08:33:26;100431.00;;;31.61;13.34
70393;BME280;57812;59.294;18.084;2022-07-10T08:35:52;100427.20;;;31.91;13.38
70393;BME280;57812;59.294;18.084;2022-07-10T08:38:18;100428.23;;;32.18;13.40
70393;BME280;57812;59.294;18.084;2022-07-10T08:40:45;100430.31;;;31.95;13.52
70393;BME280;57812;59.294;18.084;2022-07-10T08:43:10;100431.21;;;30.36;14.35
70393;BME280;57812;59.294;18.084;2022-07-10T08:45:36;100436.92;;;30.38;14.06
70393;BME280;57812;59.294;18.084;2022-07-10T08:48:03;100442.45;;;30.80;13.94
70393;BME280;57812;59.294;18.084;2022-07-10T08:50:29;100439.32;;;29.86;14.40
70393;BME280;57812;59.294;18.084;2022-07-10T08:53:00;100438.02;;;31.51;13.47
70393;BME280;57812;59.294;18.084;2022-07-10T08:55:20;100445.39;;;31.05;13.66
70393;BME280;57812;59.294;18.084;2022-07-10T08:57:46;100447.74;;;30.98;13.53
70393;BME280;57812;59.294;18.084;2022-07-10T09:00:11;100447.27;;;31.26;13.64
70393;BME280;57812;59.294;18.084;2022-07-10T09:02:37;100452.22;;;31.38;13.41
70393;BME280;57812;59.294;18.084;2022-07-10T09:05:04;100456.31;;;31.22;13.40
70393;BME280;57812;59.294;18.084;2022-07-10T09:07:34;100455.66;;;31.19;13.71
70393;BME280;57812;59.294;18.084;2022-07-10T09:09:56;100456.41;;;31.00;13.86
70393;BME280;57812;59.294;18.084;2022-07-10T09:12:21;100459.84;;;29.75;14.70
70393;BME280;57812;59.294;18.084;2022-07-10T09:14:47;100463.28;;;31.00;13.83
70393;BME280;57812;59.294;18.084;2022-07-10T09:17:12;100470.91;;;31.06;13.58
70393;BME280;57812;59.294;18.084;2022-07-10T09:19:39;100470.71;;;30.99;13.60
70393;BME280;57812;59.294;18.084;2022-07-10T09:22:06;100471.20;;;31.33;13.53
70393;BME280;57812;59.294;18.084;2022-07-10T09:24:35;100468.66;;;30.96;13.49
70393;BME280;57812;59.294;18.084;2022-07-10T09:26:59;100473.98;;;30.85;13.57
70393;BME280;57812;59.294;18.084;2022-07-10T09:29:22;100471.72;;;30.90;13.65
70393;BME280;57812;59.294;18.084;2022-07-10T09:31:49;100473.35;;;30.52;13.72
70393;BME280;57812;59.294;18.084;2022-07-10T09:34:14;100474.07;;;30.46;13.80
70393;BME280;57812;59.294;18.084;2022-07-10T09:36:40;100480.87;;;30.70;13.89
70393;BME280;57812;59.294;18.084;2022-07-10T09:39:06;100479.00;;;31.19;13.46
70393;BME280;57812;59.294;18.084;2022-07-10T09:41:32;100480.00;;;31.37;13.24
70393;BME280;57812;59.294;18.084;2022-07-10T09:43:58;100480.53;;;30.78;13.58
70393;BME280;57812;59.294;18.084;2022-07-10T09:46:25;100477.15;;;30.59;13.77
70393;BME280;57812;59.294;18.084;2022-07-10T09:51:15;100480.41;;;30.92;13.52
70393;BME280;57812;59.294;18.084;2022-07-10T09:53:43;100483.90;;;30.97;13.18
70393;BME280;57812;59.294;18.084;2022-07-10T09:56:08;100478.83;;;30.97;13.21
70393;BME280;57812;59.294;18.084;2022-07-10T09:58:34;100479.15;;;30.49;13.44
70393;BME280;57812;59.294;18.084;2022-07-10T10:01:00;100476.47;;;30.66;13.80
70393;BME280;57812;59.294;18.084;2022-07-10T10:03:25;100484.92;;;30.85;13.42
70393;BME280;57812;59.294;18.084;2022-07-10T10:05:53;100491.60;;;31.39;13.10
70393;BME280;57812;59.294;18.084;2022-07-10T10:08:19;100490.31;;;30.79;13.38
70393;BME280;57812;59.294;18.084;2022-07-10T10:10:45;100487.14;;;31.03;13.31
70393;BME280;57812;59.294;18.084;2022-07-10T10:13:10;100486.94;;;30.97;14.67
70393;BME280;57812;59.294;18.084;2022-07-10T10:15:34;100485.84;;;31.24;13.31
70393;BME280;57812;59.294;18.084;2022-07-10T10:18:02;100487.73;;;31.20;13.41
70393;BME280;57812;59.294;18.084;2022-07-10T10:20:25;100487.58;;;31.00;13.46
70393;BME280;57812;59.294;18.084;2022-07-10T10:22:52;100487.14;;;30.59;13.67
70393;BME280;57812;59.294;18.084;2022-07-10T10:25:17;100491.18;;;31.62;13.38
70393;BME280;57812;59.294;18.084;2022-07-10T10:27:43;100491.89;;;31.86;13.32
70393;BME280;57812;59.294;18.084;2022-07-10T10:30:10;100495.45;;;31.05;13.72
70393;BME280;57812;59.294;18.084;2022-07-10T10:32:39;100494.32;;;30.97;13.68
70393;BME280;57812;59.294;18.084;2022-07-10T10:35:00;100496.43;;;30.06;14.55
70393;BME280;57812;59.294;18.084;2022-07-10T10:37:33;100506.70;;;31.43;13.59
70393;BME280;57812;59.294;18.084;2022-07-10T10:39:53;100510.77;;;30.67;13.86
70393;BME280;57812;59.294;18.084;2022-07-10T10:44:44;100512.94;;;30.41;13.61
70393;BME280;57812;59.294;18.084;2022-07-10T10:47:10;100516.11;;;31.01;13.49
70393;BME280;57812;59.294;18.084;2022-07-10T10:52:03;100519.18;;;30.61;13.39
70393;BME280;57812;59.294;18.084;2022-07-10T10:54:31;100520.46;;;31.09;13.48
70393;BME280;57812;59.294;18.084;2022-07-10T11:01:45;100523.25;;;29.02;14.09
70393;BME280;57812;59.294;18.084;2022-07-10T11:04:13;100528.77;;;30.33;13.08
70393;BME280;57812;59.294;18.084;2022-07-10T11:06:38;100530.67;;;30.59;12.96
70393;BME280;57812;59.294;18.084;2022-07-10T11:11:37;100536.59;;;30.81;13.46
70393;BME280;57812;59.294;18.084;2022-07-10T11:13:56;100535.12;;;29.48;14.20
70393;BME280;57812;59.294;18.084;2022-07-10T11:16:21;100535.27;;;29.49;14.27
70393;BME280;57812;59.294;18.084;2022-07-10T11:18:51;100533.94;;;30.53;13.76
70393;BME280;57812;59.294;18.084;2022-07-10T11:21:20;100531.36;;;30.45;13.73
70393;BME280;57812;59.294;18.084;2022-07-10T11:23:51;100532.80;;;30.76;13.66
70393;BME280;57812;59.294;18.084;2022-07-10T11:26:06;100540.11;;;31.32;13.38
70393;BME280;57812;59.294;18.084;2022-07-10T11:28:41;100536.55;;;31.67;13.47
70393;BME280;57812;59.294;18.084;2022-07-10T11:30:56;100534.55;;;30.95;13.78
70393;BME280;57812;59.294;18.084;2022-07-10T11:33:22;100541.92;;;29.97;14.07
70393;BME280;57812;59.294;18.084;2022-07-10T11:35:50;100545.29;;;29.76;14.12
70393;BME280;57812;59.294;18.084;2022-07-10T11:38:19;100545.20;;;30.27;14.10
70393;BME280;57812;59.294;18.084;2022-07-10T11:40:40;100545.77;;;29.45;14.28
70393;BME280;57812;59.294;18.084;2022-07-10T11:43:06;100547.25;;;29.73;14.21
70393;BME280;57812;59.294;18.084;2022-07-10T11:45:33;100548.38;;;29.52;14.22
70393;BME280;57812;59.294;18.084;2022-07-10T11:47:58;100551.23;;;29.12;14.47
70393;BME280;57812;59.294;18.084;2022-07-10T11:50:24;100556.00;;;29.60;14.30
70393;BME280;57812;59.294;18.084;2022-07-10T11:52:50;100554.57;;;29.48;14.45
70393;BME280;57812;59.294;18.084;2022-07-10T11:55:16;100552.57;;;30.09;14.12
70393;BME280;57812;59.294;18.084;2022-07-10T11:57:41;100553.36;;;29.59;14.39
70393;BME280;57812;59.294;18.084;2022-07-10T12:02:33;100556.10;;;29.78;14.37
70393;BME280;57812;59.294;18.084;2022-07-10T12:04:59;100555.21;;;29.78;14.17
70393;BME280;57812;59.294;18.084;2022-07-10T12:07:25;100556.05;;;29.69;14.12
70393;BME280;57812;59.294;18.084;2022-07-10T12:09:53;100554.81;;;29.64;14.43
70393;BME280;57812;59.294;18.084;2022-07-10T12:12:22;100557.67;;;29.87;14.18
70393;BME280;57812;59.294;18.084;2022-07-10T12:14:42;100563.36;;;29.42;14.38
70393;BME280;57812;59.294;18.084;2022-07-10T12:17:11;100566.50;;;29.20;14.48
70393;BME280;57812;59.294;18.084;2022-07-10T12:19:37;100561.78;;;29.49;14.24
70393;BME280;57812;59.294;18.084;2022-07-10T12:22:00;100558.24;;;30.04;14.35
70393;BME280;57812;59.294;18.084;2022-07-10T12:24:26;100560.87;;;29.73;14.24
70393;BME280;57812;59.294;18.084;2022-07-10T12:26:52;100564.21;;;28.97;14.33
70393;BME280;57812;59.294;18.084;2022-07-10T12:29:20;100565.17;;;30.22;14.04
70393;BME280;57812;59.294;18.084;2022-07-10T12:31:44;100562.03;;;29.75;14.13
70393;BME280;57812;59.294;18.084;2022-07-10T12:34:10;100565.19;;;30.09;14.14
70393;BME280;57812;59.294;18.084;2022-07-10T12:36:41;100560.26;;;28.75;14.62
70393;BME280;57812;59.294;18.084;2022-07-10T12:39:01;100564.94;;;29.48;14.44
70393;BME280;57812;59.294;18.084;2022-07-10T12:41:27;100561.02;;;29.18;14.53
70393;BME280;57812;59.294;18.084;2022-07-10T12:43:53;100558.62;;;29.98;14.29
70393;BME280;57812;59.294;18.084;2022-07-10T12:46:21;100556.64;;;28.92;14.92
70393;BME280;57812;59.294;18.084;2022-07-10T12:51:20;100558.08;;;29.92;14.46